createdAt,value
2022-09-05T00:00:14.648Z,18.50
2022-09-05T00:03:04.691Z,18.50
2022-09-05T00:06:02.363Z,18.40
2022-09-05T00:08:47.088Z,18.50
2022-09-05T00:11:43.106Z,18.40
2022-09-05T00:15:14.326Z,18.40
2022-09-05T00:18:02.869Z,18.30
2022-09-05T00:24:25.996Z,18.30
2022-09-05T00:24:27.842Z,18.20
2022-09-05T00:26:43.897Z,18.30
2022-09-05T00:30:57.322Z,18.20
2022-09-05T00:32:40.056Z,18.20
2022-09-05T00:35:26.856Z,18.20
2022-09-05T00:37:57.441Z,18.20
2022-09-05T00:40:30.244Z,18.10
2022-09-05T00:43:03.406Z,18.10
2022-09-05T00:45:38.813Z,18.10
2022-09-05T00:48:21.959Z,18.10
2022-09-05T00:51:18.040Z,18.10
2022-09-05T00:53:56.963Z,18.10
2022-09-05T00:56:46.425Z,18.10
2022-09-05T00:59:58.599Z,18.10
2022-09-05T01:02:51.518Z,18.10
2022-09-05T01:05:32.996Z,18.00
2022-09-05T01:08:17.588Z,18.00
2022-09-05T01:10:54.990Z,18.00
2022-09-05T01:13:36.092Z,18.00
2022-09-05T01:16:12.295Z,17.90
2022-09-05T01:18:48.225Z,17.90
2022-09-05T01:21:40.296Z,17.90
2022-09-05T01:24:40.671Z,17.90
2022-09-05T01:28:11.299Z,17.90
2022-09-05T01:30:41.879Z,17.90
2022-09-05T01:33:21.297Z,17.90
2022-09-05T01:36:05.635Z,17.90
2022-09-05T01:38:40.613Z,17.90
2022-09-05T01:41:25.183Z,17.90
2022-09-05T01:44:06.048Z,17.90
2022-09-05T01:46:40.914Z,17.80
2022-09-05T01:49:20.680Z,17.80
2022-09-05T01:52:14.967Z,17.90
2022-09-05T01:54:56.289Z,17.90
2022-09-05T01:57:33.142Z,17.80
2022-09-05T02:00:11.541Z,17.80
2022-09-05T02:03:00.326Z,17.80
2022-09-05T02:06:00.725Z,17.80
2022-09-05T02:08:52.717Z,17.70
2022-09-05T02:11:42.805Z,17.70
2022-09-05T02:14:27.049Z,17.60
2022-09-05T02:17:23.722Z,17.60
2022-09-05T02:20:23.429Z,17.60
2022-09-05T02:23:01.220Z,17.50
2022-09-05T02:26:01.745Z,17.50
2022-09-05T02:28:37.733Z,17.50
2022-09-05T02:31:19.879Z,17.50
2022-09-05T02:34:01.861Z,17.40
2022-09-05T02:36:36.452Z,17.50
2022-09-05T02:44:51.555Z,17.50
2022-09-05T02:45:11.426Z,17.40
2022-09-05T02:45:25.355Z,17.30
2022-09-05T02:48:06.926Z,17.30
2022-09-05T02:57:23.495Z,17.30
2022-09-05T02:57:36.182Z,17.30
2022-09-05T02:57:36.693Z,17.20
2022-09-05T03:00:07.591Z,17.20
2022-09-05T03:02:47.196Z,17.20
2022-09-05T03:05:22.540Z,17.20
2022-09-05T03:08:07.797Z,17.20
2022-09-05T03:11:21.399Z,17.10
2022-09-05T03:14:37.740Z,17.10
2022-09-05T03:17:34.985Z,17.00
2022-09-05T03:21:09.718Z,17.00
2022-09-05T03:24:06.362Z,17.00
2022-09-05T03:27:11.753Z,16.90
2022-09-05T03:30:05.992Z,16.90
2022-09-05T03:33:03.867Z,16.80
2022-09-05T03:36:08.721Z,16.80
2022-09-05T03:39:10.775Z,16.70
2022-09-05T03:42:14.433Z,16.70
2022-09-05T03:45:02.141Z,16.60
2022-09-05T03:48:18.558Z,16.60
2022-09-05T03:56:56.922Z,16.60
2022-09-05T03:57:15.452Z,16.60
2022-09-05T03:57:41.490Z,16.60
2022-09-05T04:00:20.825Z,16.60
2022-09-05T04:08:07.472Z,16.60
2022-09-05T04:08:23.746Z,16.50
2022-09-05T04:09:04.740Z,16.40
2022-09-05T04:11:37.578Z,16.40
2022-09-05T04:14:12.297Z,16.40
2022-09-05T04:16:51.996Z,16.40
2022-09-05T04:19:29.276Z,16.30
2022-09-05T04:22:08.284Z,16.30
2022-09-05T04:24:45.179Z,16.30
2022-09-05T04:27:27.965Z,16.30
2022-09-05T04:30:06.590Z,16.30
2022-09-05T04:32:59.131Z,16.30
2022-09-05T04:35:34.709Z,16.30
2022-09-05T04:38:11.545Z,16.30
2022-09-05T04:40:48.335Z,16.30
2022-09-05T04:43:29.837Z,16.30
2022-09-05T04:46:10.528Z,16.30
2022-09-05T04:48:44.994Z,16.20
2022-09-05T04:51:34.656Z,16.10
2022-09-05T04:54:31.887Z,16.10
2022-09-05T04:57:14.390Z,16.20
2022-09-05T05:05:53.759Z,16.20
2022-09-05T05:06:01.927Z,16.10
2022-09-05T05:06:16.666Z,16.10
2022-09-05T05:08:38.664Z,16.20
2022-09-05T05:16:34.078Z,16.20
2022-09-05T05:18:00.115Z,16.10
2022-09-05T05:18:11.320Z,16.10
2022-09-05T05:20:39.421Z,16.10
2022-09-05T05:22:54.053Z,16.10
2022-09-05T05:25:22.472Z,16.10
2022-09-05T05:28:10.335Z,16.10
2022-09-05T05:30:54.006Z,16.20
2022-09-05T05:33:33.986Z,16.10
2022-09-05T05:36:08.607Z,16.10
2022-09-05T05:38:44.117Z,16.10
2022-09-05T05:41:19.553Z,16.20
2022-09-05T05:43:48.319Z,16.20
2022-09-05T05:46:26.056Z,16.20
2022-09-05T05:49:04.532Z,16.20
2022-09-05T05:52:02.697Z,16.30
2022-09-05T05:54:42.032Z,16.30
2022-09-05T05:57:33.490Z,16.30
2022-09-05T06:00:14.962Z,16.30
2022-09-05T06:03:26.417Z,16.40
2022-09-05T06:06:33.049Z,16.50
2022-09-05T06:14:07.876Z,16.50
2022-09-05T06:14:54.845Z,16.70
2022-09-05T06:28:26.996Z,17.20
2022-09-05T06:31:30.195Z,17.30
2022-09-05T06:34:35.475Z,17.50
2022-09-05T06:37:11.255Z,17.50
2022-09-05T06:39:58.629Z,17.60
2022-09-05T06:42:43.797Z,17.70
2022-09-05T06:45:33.070Z,17.80
2022-09-05T06:48:23.870Z,18.00
2022-09-05T06:51:28.208Z,18.00
2022-09-05T06:54:10.974Z,18.10
2022-09-05T06:56:59.687Z,18.20
2022-09-05T07:00:04.676Z,18.30
2022-09-05T07:02:59.495Z,18.40
2022-09-05T07:05:44.611Z,18.50
2022-09-05T07:08:34.672Z,18.60
2022-09-05T07:11:15.967Z,18.70
2022-09-05T07:13:55.911Z,18.80
2022-09-05T07:24:41.807Z,19.10
2022-09-05T07:27:34.394Z,19.20
2022-09-05T07:33:02.334Z,19.40
2022-09-05T07:35:41.320Z,19.50
2022-09-05T07:38:18.020Z,19.60
2022-09-05T07:40:53.459Z,19.70
2022-09-05T07:43:30.960Z,19.60
2022-09-05T07:46:13.690Z,19.80
2022-09-05T07:48:45.656Z,20.00
2022-09-05T07:56:17.216Z,20.20
2022-09-05T08:07:49.877Z,20.70
2022-09-05T08:10:31.133Z,21.50
2022-09-05T08:13:23.703Z,21.60
2022-09-05T08:16:09.755Z,21.70
2022-09-05T08:18:47.463Z,21.80
2022-09-05T08:21:27.743Z,21.80
2022-09-05T08:24:13.568Z,21.70
2022-09-05T08:26:47.578Z,21.60
2022-09-05T08:29:32.257Z,21.70
2022-09-05T08:32:10.465Z,21.80
2022-09-05T08:34:45.803Z,22.00
2022-09-05T08:37:21.331Z,22.00
2022-09-05T08:40:10.206Z,22.00
2022-09-05T08:43:36.612Z,21.90
2022-09-05T08:46:45.797Z,21.70
2022-09-05T08:48:41.512Z,21.50
2022-09-05T08:51:28.227Z,21.40
2022-09-05T08:54:15.428Z,21.40
2022-09-05T08:56:55.921Z,21.60
2022-09-05T08:59:33.731Z,21.80
2022-09-05T09:02:47.426Z,22.00
2022-09-05T09:05:56.663Z,22.20
2022-09-05T09:08:22.560Z,22.40
2022-09-05T09:10:57.389Z,22.70
2022-09-05T09:13:50.809Z,22.80
2022-09-05T09:16:30.463Z,23.00
2022-09-05T09:19:10.786Z,23.20
2022-09-05T09:21:44.024Z,23.30
2022-09-05T09:24:24.403Z,23.50
2022-09-05T09:26:56.467Z,23.70
2022-09-05T09:29:27.817Z,23.80
2022-09-05T09:32:05.263Z,23.80
2022-09-05T09:34:47.451Z,23.90
2022-09-05T09:38:02.450Z,23.90
2022-09-05T09:41:03.042Z,23.90
2022-09-05T09:43:53.972Z,23.80
2022-09-05T09:46:34.192Z,23.60
2022-09-05T09:49:37.936Z,23.60
2022-09-05T09:52:44.706Z,23.60
2022-09-05T09:55:52.074Z,23.70
2022-09-05T09:58:42.914Z,23.80
2022-09-05T10:01:34.963Z,23.90
2022-09-05T10:10:35.650Z,24.00
2022-09-05T10:10:53.995Z,24.10
2022-09-05T10:11:51.486Z,24.40
2022-09-05T10:14:50.864Z,24.60
2022-09-05T10:17:56.932Z,24.80
2022-09-05T10:20:39.483Z,25.00
2022-09-05T10:23:44.258Z,25.10
2022-09-05T10:26:47.315Z,25.10
2022-09-05T10:29:43.104Z,25.30
2022-09-05T10:35:10.780Z,25.50
2022-09-05T10:35:22.186Z,25.70
2022-09-05T10:37:58.086Z,25.80
2022-09-05T10:40:28.614Z,26.00
2022-09-05T10:43:02.451Z,26.10
2022-09-05T10:45:42.682Z,26.30
2022-09-05T10:48:18.180Z,26.40
2022-09-05T10:50:55.414Z,26.60
2022-09-05T10:53:38.996Z,26.70
2022-09-05T10:56:13.270Z,26.80
2022-09-05T10:59:54.172Z,26.90
2022-09-05T11:02:28.570Z,26.90
2022-09-05T11:04:46.794Z,27.00
2022-09-05T11:07:27.870Z,27.10
2022-09-05T11:10:17.299Z,27.10
2022-09-05T11:13:05.127Z,27.10
2022-09-05T11:15:47.884Z,26.90
2022-09-05T11:18:57.726Z,27.00
2022-09-05T11:22:10.321Z,27.10
2022-09-05T11:24:51.680Z,27.30
2022-09-05T11:27:30.350Z,27.50
2022-09-05T11:30:06.982Z,27.50
2022-09-05T11:37:41.674Z,27.60
2022-09-05T11:40:04.535Z,27.70
2022-09-05T11:40:07.047Z,27.70
2022-09-05T11:42:24.448Z,27.80
2022-09-05T11:45:20.572Z,27.80
2022-09-05T11:48:25.007Z,27.80
2022-09-05T11:51:33.996Z,27.90
2022-09-05T11:54:43.418Z,28.00
2022-09-05T11:57:34.745Z,28.20
2022-09-05T12:00:31.123Z,28.20
2022-09-05T12:03:58.792Z,28.30
2022-09-05T12:06:54.964Z,28.30
2022-09-05T12:09:35.776Z,28.30
2022-09-05T12:12:26.997Z,28.40
2022-09-05T12:15:26.733Z,28.40
2022-09-05T12:18:19.138Z,28.20
2022-09-05T12:20:57.522Z,28.20
2022-09-05T12:23:53.816Z,28.40
2022-09-05T12:27:42.869Z,28.40
2022-09-05T12:29:33.602Z,28.50
2022-09-05T12:33:16.178Z,28.50
2022-09-05T12:40:43.589Z,28.60
2022-09-05T12:41:36.066Z,28.60
2022-09-05T12:42:10.953Z,28.50
2022-09-05T12:44:39.478Z,28.60
2022-09-05T12:46:33.795Z,28.80
2022-09-05T12:49:07.755Z,28.70
2022-09-05T12:51:47.083Z,28.80
2022-09-05T12:54:33.983Z,28.90
2022-09-05T13:01:08.165Z,28.90
2022-09-05T13:02:56.622Z,29.00
2022-09-05T13:03:43.993Z,29.00
2022-09-05T13:06:01.830Z,29.10
2022-09-05T13:08:31.963Z,29.30
2022-09-05T13:16:47.004Z,29.30
2022-09-05T13:19:26.612Z,29.10
2022-09-05T13:22:25.404Z,29.10
2022-09-05T13:25:03.908Z,29.00
2022-09-05T13:27:39.254Z,29.00
2022-09-05T13:31:40.677Z,28.90
2022-09-05T13:36:06.731Z,29.00
2022-09-05T13:38:06.155Z,29.10
2022-09-05T13:39:11.353Z,29.20
2022-09-05T13:41:50.746Z,29.30
2022-09-05T13:44:27.783Z,29.30
2022-09-05T13:47:28.998Z,29.20
2022-09-05T13:50:12.574Z,29.20
2022-09-05T13:52:44.994Z,29.20
2022-09-05T13:57:54.920Z,29.20
2022-09-05T14:00:52.538Z,29.30
2022-09-05T14:03:57.162Z,29.60
2022-09-05T14:06:49.058Z,29.70
2022-09-05T14:09:44.706Z,29.90
2022-09-05T14:15:13.707Z,30.00
2022-09-05T14:18:00.258Z,30.00
2022-09-05T14:23:15.303Z,30.20
2022-09-05T14:25:45.438Z,30.20
2022-09-05T14:28:19.237Z,30.20
2022-09-05T14:32:39.864Z,30.20
2022-09-05T14:37:44.071Z,30.20
2022-09-05T14:37:51.308Z,30.10
2022-09-05T14:46:04.305Z,30.00
2022-09-05T14:51:47.723Z,30.10
2022-09-05T15:02:58.246Z,30.30
2022-09-05T15:03:21.552Z,30.20
2022-09-05T15:05:51.609Z,30.00
2022-09-05T15:11:24.413Z,29.80
2022-09-05T15:14:03.802Z,29.80
2022-09-05T15:20:07.505Z,29.80
2022-09-05T15:22:40.001Z,29.80
2022-09-05T15:25:26.121Z,29.70
2022-09-05T15:27:56.495Z,29.60
2022-09-05T15:30:35.816Z,29.30
2022-09-05T15:35:43.899Z,29.30
2022-09-05T15:38:56.119Z,29.20
2022-09-05T15:44:15.435Z,29.30
2022-09-05T15:46:51.356Z,29.30
2022-09-05T15:52:04.417Z,29.20
2022-09-05T16:00:09.131Z,29.00
2022-09-05T16:10:39.376Z,28.90
2022-09-05T16:14:23.192Z,28.80
2022-09-05T16:23:12.239Z,28.70
2022-09-05T16:23:30.079Z,28.60
2022-09-05T16:23:31.186Z,28.60
2022-09-05T16:26:03.041Z,28.50
2022-09-05T16:28:36.471Z,28.40
2022-09-05T16:31:36.825Z,28.40
2022-09-05T16:45:51.054Z,28.30
2022-09-05T16:51:36.506Z,28.20
2022-09-05T16:57:04.365Z,28.10
2022-09-05T17:02:09.325Z,27.90
2022-09-05T17:14:10.839Z,27.50
2022-09-05T17:29:38.349Z,27.00
2022-09-05T17:35:17.986Z,26.70
2022-09-05T17:38:20.379Z,26.60
2022-09-05T17:41:10.611Z,26.60
2022-09-05T17:43:40.266Z,26.40
2022-09-05T17:46:21.673Z,26.30
2022-09-05T17:49:41.922Z,26.20
2022-09-05T17:52:32.497Z,26.10
2022-09-05T17:57:42.318Z,26.00
2022-09-05T18:00:47.483Z,25.90
2022-09-05T18:06:34.492Z,25.70
2022-09-05T18:12:37.954Z,25.50
2022-09-05T18:15:16.328Z,25.50
2022-09-05T18:18:02.563Z,25.50
2022-09-05T18:20:53.433Z,25.40
2022-09-05T18:23:54.292Z,25.30
2022-09-05T18:26:43.637Z,25.30
2022-09-05T18:32:05.272Z,25.00
2022-09-05T18:34:51.577Z,24.90
2022-09-05T18:38:16.531Z,24.90
2022-09-05T18:41:19.541Z,24.80
2022-09-05T18:44:12.924Z,24.60
2022-09-05T18:46:48.572Z,24.60
2022-09-05T19:02:58.826Z,24.50
2022-09-05T19:05:42.442Z,24.30
2022-09-05T19:08:28.742Z,24.30
2022-09-05T19:11:27.676Z,24.20
2022-09-05T19:14:26.467Z,24.10
2022-09-05T19:16:54.348Z,24.00
2022-09-05T19:19:32.956Z,23.90
2022-09-05T19:23:09.135Z,23.90
2022-09-05T19:25:00.089Z,23.80
2022-09-05T19:30:37.977Z,23.80
2022-09-05T19:36:56.794Z,23.70
2022-09-05T19:37:09.977Z,23.50
2022-09-05T19:37:12.704Z,23.70
2022-09-05T19:42:55.736Z,23.50
2022-09-05T19:47:30.926Z,23.50
2022-09-05T19:47:42.433Z,23.40
2022-09-05T19:48:07.820Z,23.40
2022-09-05T19:50:38.474Z,23.30
2022-09-05T19:53:09.492Z,23.30
2022-09-05T19:55:56.544Z,23.30
2022-09-05T19:58:31.924Z,23.20
2022-09-05T20:01:08.430Z,23.20
2022-09-05T20:03:43.651Z,23.10
2022-09-05T20:06:29.875Z,23.10
2022-09-05T20:12:08.488Z,23.00
2022-09-05T20:14:40.373Z,22.90
2022-09-05T20:17:22.994Z,22.80
2022-09-05T20:20:11.240Z,22.80
2022-09-05T20:22:51.285Z,22.80
2022-09-05T20:25:35.158Z,22.70
2022-09-05T20:28:10.140Z,22.70
2022-09-05T20:30:47.493Z,22.70
2022-09-05T20:33:20.690Z,22.60
2022-09-05T20:38:28.314Z,22.70
2022-09-05T20:43:18.014Z,22.50
2022-09-05T20:43:32.822Z,22.60
2022-09-05T20:44:42.560Z,22.50
2022-09-05T20:50:26.046Z,22.40
2022-09-05T20:54:14.294Z,22.40
2022-09-05T20:54:19.678Z,22.40
2022-09-05T20:56:08.307Z,22.30
2022-09-05T20:58:40.430Z,22.30
2022-09-05T21:01:21.760Z,22.30
2022-09-05T21:04:00.402Z,22.30
2022-09-05T21:06:34.481Z,22.20
2022-09-05T21:09:23.813Z,22.10
2022-09-05T21:11:54.366Z,22.10
2022-09-05T21:14:26.371Z,22.10
2022-09-05T21:17:00.849Z,22.10
2022-09-05T21:19:42.181Z,22.00
2022-09-05T21:22:34.289Z,21.90
2022-09-05T21:25:21.190Z,21.90
2022-09-05T21:28:05.836Z,21.90
2022-09-05T21:30:39.356Z,21.80
2022-09-05T21:33:17.336Z,21.80
2022-09-05T21:35:50.296Z,21.80
2022-09-05T21:38:32.736Z,21.70
2022-09-05T21:41:02.785Z,21.70
2022-09-05T21:47:44.676Z,21.70
2022-09-05T21:47:45.066Z,21.70
2022-09-05T21:49:11.218Z,21.70
2022-09-05T21:51:39.867Z,21.60
2022-09-05T21:59:13.468Z,21.70
2022-09-05T21:59:33.664Z,21.60
2022-09-05T22:02:37.868Z,21.40
2022-09-05T22:05:07.231Z,21.40
2022-09-05T22:07:37.964Z,21.40
2022-09-05T22:10:08.951Z,21.40
2022-09-05T22:12:39.278Z,21.40
2022-09-05T22:15:27.898Z,21.30
2022-09-05T22:18:17.682Z,21.30
2022-09-05T22:21:31.864Z,21.30
2022-09-05T22:23:44.517Z,21.30
2022-09-05T22:26:13.318Z,21.30
2022-09-05T22:28:54.464Z,21.30
2022-09-05T22:31:23.860Z,21.30
2022-09-05T22:33:55.686Z,21.30
2022-09-05T22:36:25.212Z,21.30
2022-09-05T22:38:59.046Z,21.20
2022-09-05T22:41:33.030Z,21.20
2022-09-05T22:44:01.694Z,21.20
2022-09-05T22:46:30.882Z,21.30
2022-09-05T22:49:11.557Z,21.20
2022-09-05T22:51:47.605Z,21.20
2022-09-05T22:54:17.151Z,21.20
2022-09-05T22:56:50.958Z,21.10
2022-09-05T22:59:19.946Z,21.00
2022-09-05T23:01:48.433Z,21.00
2022-09-05T23:04:18.252Z,21.00
2022-09-05T23:06:47.334Z,21.00
2022-09-05T23:09:16.362Z,21.00
2022-09-05T23:11:45.801Z,21.00
2022-09-05T23:14:14.293Z,20.90
2022-09-05T23:16:43.206Z,21.00
2022-09-05T23:19:11.613Z,20.90
2022-09-05T23:21:41.840Z,20.90
2022-09-05T23:24:10.324Z,20.90
2022-09-05T23:26:38.525Z,20.90
2022-09-05T23:29:07.257Z,20.90
2022-09-05T23:31:35.880Z,20.90
2022-09-05T23:34:04.997Z,20.80
2022-09-05T23:36:34.047Z,20.80
2022-09-05T23:39:03.781Z,20.70
2022-09-05T23:41:32.073Z,20.70
2022-09-05T23:44:00.438Z,20.70
2022-09-05T23:46:28.587Z,20.60
2022-09-05T23:48:56.694Z,20.60
2022-09-05T23:51:24.806Z,20.50
2022-09-05T23:53:52.840Z,20.50
2022-09-05T23:56:22.289Z,20.60
2022-09-05T23:58:50.421Z,20.60
